Time;durP1;ratioP1;P1;durP2;ratioP2;P2;SDS_P1;SDS_P2;PMS_P1;PMS_P2;Temp;Humidity;BMP_temperature;BMP_pressure;BME280_temperature;BME280_humidity;BME280_pressure;Samples;Min_cycle;Max_cycle;Signal;HPM_P1;HPM_P2
2021/04/29 00:00:18;;;;;;;14.93;10.55;;;11.40;99.90;;;;;;5032462;28;20076;-66
2021/04/29 00:02:45;;;;;;;15.13;9.30;;;11.40;99.90;;;;;;5047340;28;20113;-65
2021/04/29 00:05:18;;;;;;;14.57;9.85;;;11.40;99.90;;;;;;5014702;28;20072;-65
2021/04/29 00:07:44;;;;;;;13.63;8.95;;;11.40;99.90;;;;;;5031274;28;20042;-65
2021/04/29 00:10:16;;;;;;;16.70;9.35;;;11.40;99.90;;;;;;5047992;28;20025;-65
2021/04/29 00:12:42;;;;;;;16.25;9.50;;;11.40;99.90;;;;;;5032037;28;20029;-66
2021/04/29 00:15:11;;;;;;;14.95;8.23;;;11.40;99.90;;;;;;5032106;28;20116;-66
2021/04/29 00:17:37;;;;;;;16.73;9.70;;;11.50;99.90;;;;;;5032181;28;20041;-67
2021/04/29 00:20:11;;;;;;;18.23;10.57;;;11.40;99.90;;;;;;5031152;28;20578;-67
2021/04/29 00:22:37;;;;;;;17.38;9.50;;;11.30;99.90;;;;;;5031768;28;20052;-65
2021/04/29 00:25:05;;;;;;;19.35;10.25;;;11.30;99.90;;;;;;5032289;28;20033;-66
2021/04/29 00:27:31;;;;;;;17.27;10.23;;;11.40;99.90;;;;;;5047544;28;20026;-66
2021/04/29 00:29:57;;;;;;;21.55;10.95;;;11.30;99.90;;;;;;5032110;28;20535;-66
2021/04/29 00:32:23;;;;;;;23.30;11.77;;;11.30;99.90;;;;;;5031986;28;20112;-65
2021/04/29 00:34:49;;;;;;;25.20;11.80;;;11.20;99.90;;;;;;5047441;28;20034;-67
2021/04/29 00:37:15;;;;;;;26.77;11.88;;;11.30;99.90;;;;;;5047625;28;20152;-66
2021/04/29 00:39:41;;;;;;;24.38;12.80;;;11.30;99.90;;;;;;5032210;28;20044;-65
2021/04/29 00:42:07;;;;;;;28.90;13.68;;;11.20;99.90;;;;;;5032185;28;20095;-66
2021/04/29 00:44:33;;;;;;;24.05;12.98;;;11.30;99.90;;;;;;5032092;28;20033;-66
2021/04/29 00:47:00;;;;;;;23.42;13.25;;;11.20;99.90;;;;;;5047322;28;20034;-65
2021/04/29 00:49:26;;;;;;;25.83;13.52;;;11.30;99.90;;;;;;5031671;28;20112;-65
2021/04/29 00:51:52;;;;;;;24.27;14.55;;;11.40;99.90;;;;;;5032077;28;20033;-66
2021/04/29 00:54:18;;;;;;;23.85;15.05;;;11.30;99.90;;;;;;5031768;28;20029;-66
2021/04/29 00:56:44;;;;;;;27.42;16.08;;;11.30;99.90;;;;;;5031774;28;20076;-66
2021/04/29 00:59:10;;;;;;;27.95;16.83;;;11.20;99.90;;;;;;5031740;28;20032;-66
2021/04/29 01:01:38;;;;;;;27.52;15.75;;;11.30;99.90;;;;;;5047272;28;20477;-66
2021/04/29 01:04:28;;;;;;;32.38;17.58;;;11.30;99.90;;;;;;5047399;28;20079;-66
2021/04/29 01:07:01;;;;;;;26.17;16.33;;;11.40;99.90;;;;;;5031730;28;20036;-66
2021/04/29 01:09:39;;;;;;;27.25;16.13;;;11.40;99.90;;;;;;5046873;28;20485;-66
2021/04/29 01:12:30;;;;;;;30.10;16.35;;;11.30;99.90;;;;;;5028875;28;20087;-66
2021/04/29 01:14:59;;;;;;;25.70;15.20;;;11.20;99.90;;;;;;5046240;28;20030;-66
2021/04/29 01:17:25;;;;;;;24.52;14.40;;;11.20;99.90;;;;;;5033960;28;20041;-64
2021/04/29 01:20:00;;;;;;;26.23;15.48;;;11.30;99.90;;;;;;5050713;28;20091;-66
2021/04/29 01:22:26;;;;;;;26.08;15.00;;;11.20;99.90;;;;;;5049862;28;20139;-66
2021/04/29 01:25:12;;;;;;;30.35;15.65;;;11.10;99.90;;;;;;5035530;28;20505;-66
2021/04/29 01:27:40;;;;;;;28.95;16.75;;;11.20;99.90;;;;;;5049984;28;20036;-66
2021/04/29 01:30:12;;;;;;;22.90;13.63;;;11.20;99.90;;;;;;5050810;28;20068;-66
2021/04/29 01:32:38;;;;;;;24.75;14.60;;;11.20;99.90;;;;;;5049993;28;20095;-66
2021/04/29 01:35:08;;;;;;;27.05;15.00;;;11.20;99.90;;;;;;5050239;28;20128;-66
2021/04/29 01:37:36;;;;;;;27.50;15.60;;;11.00;99.90;;;;;;5033512;28;20040;-66
2021/04/29 01:40:04;;;;;;;26.63;15.73;;;10.90;99.90;;;;;;5050506;28;20090;-66
2021/04/29 01:42:33;;;;;;;25.55;13.48;;;11.00;99.90;;;;;;5035111;28;20501;-66
2021/04/29 01:45:00;;;;;;;22.70;11.77;;;11.00;99.90;;;;;;5050264;28;20033;-66
2021/04/29 01:47:26;;;;;;;17.75;10.38;;;11.00;99.90;;;;;;5049966;28;20497;-66
2021/04/29 01:49:52;;;;;;;16.38;9.57;;;11.10;99.90;;;;;;5050583;28;20041;-66
2021/04/29 01:52:18;;;;;;;17.30;8.20;;;11.10;99.90;;;;;;5034515;28;20022;-66
2021/04/29 01:54:44;;;;;;;15.25;8.48;;;11.00;99.90;;;;;;5034913;28;20041;-67
2021/04/29 01:57:10;;;;;;;14.15;8.48;;;10.90;99.90;;;;;;5032685;28;20038;-67
2021/04/29 01:59:36;;;;;;;14.43;8.75;;;10.90;99.90;;;;;;5050224;28;20045;-66
2021/04/29 02:02:02;;;;;;;13.95;9.00;;;10.90;99.90;;;;;;5034973;28;20025;-67
2021/04/29 02:04:28;;;;;;;15.90;9.82;;;10.90;99.90;;;;;;5034588;28;20040;-67
2021/04/29 02:06:53;;;;;;;15.73;9.57;;;11.00;99.90;;;;;;5034710;28;20120;-67
2021/04/29 02:09:19;;;;;;;17.73;10.10;;;10.90;99.90;;;;;;5034412;28;20482;-67
2021/04/29 02:11:56;;;;;;;19.15;9.90;;;10.90;99.90;;;;;;5034645;28;20083;-67
2021/04/29 02:14:38;;;;;;;15.27;10.18;;;10.90;99.90;;;;;;5033096;28;20037;-66
2021/04/29 02:17:42;;;;;;;18.67;9.85;;;10.90;99.90;;;;;;5034546;28;20025;-66
2021/04/29 02:20:10;;;;;;;13.65;8.18;;;10.90;99.90;;;;;;5047431;28;20496;-66
2021/04/29 02:22:43;;;;;;;15.55;8.75;;;11.00;99.90;;;;;;5048906;28;20123;-65
2021/04/29 02:25:12;;;;;;;14.38;9.10;;;11.10;99.90;;;;;;5034450;28;20045;-67
2021/04/29 02:27:39;;;;;;;16.60;10.15;;;11.10;99.90;;;;;;5048943;28;20452;-67
2021/04/29 02:30:12;;;;;;;18.08;10.18;;;11.10;99.90;;;;;;5034186;28;20502;-68
2021/04/29 02:32:39;;;;;;;15.90;10.48;;;11.00;99.90;;;;;;5034226;28;20041;-67
2021/04/29 02:35:08;;;;;;;19.65;9.88;;;11.00;99.90;;;;;;5034139;28;20030;-66
2021/04/29 02:37:35;;;;;;;23.30;12.15;;;11.10;99.90;;;;;;5034195;28;20088;-68
2021/04/29 02:40:03;;;;;;;25.60;14.27;;;11.10;99.90;;;;;;5034173;28;20047;-67
2021/04/29 02:42:29;;;;;;;25.95;14.88;;;11.10;99.90;;;;;;5049332;28;20032;-67
2021/04/29 02:44:55;;;;;;;31.35;15.60;;;11.10;99.90;;;;;;5033713;28;20037;-67
2021/04/29 02:47:21;;;;;;;25.92;15.07;;;11.00;99.90;;;;;;5049451;28;20077;-67
2021/04/29 02:49:47;;;;;;;27.58;14.70;;;11.00;99.90;;;;;;5033878;28;20140;-67
2021/04/29 02:52:13;;;;;;;25.77;15.93;;;11.00;99.90;;;;;;5033994;28;20517;-67
2021/04/29 02:54:39;;;;;;;22.35;13.20;;;11.10;99.90;;;;;;5049082;28;20030;-67
2021/04/29 02:57:05;;;;;;;19.58;12.60;;;11.10;99.90;;;;;;5049205;28;20033;-68
2021/04/29 02:59:31;;;;;;;20.27;11.10;;;11.00;99.90;;;;;;5048884;28;20038;-67
2021/04/29 03:01:57;;;;;;;18.30;11.25;;;11.00;99.90;;;;;;5033880;28;20080;-66
2021/04/29 03:04:23;;;;;;;16.60;10.52;;;11.00;99.90;;;;;;5033739;28;20461;-66
2021/04/29 03:06:48;;;;;;;17.60;11.05;;;11.00;99.90;;;;;;5015852;28;20033;-66
2021/04/29 03:09:15;;;;;;;18.20;10.30;;;11.00;99.90;;;;;;5048945;28;20042;-66
2021/04/29 03:11:41;;;;;;;19.80;10.88;;;11.00;99.90;;;;;;5048487;28;20036;-67
2021/04/29 03:14:07;;;;;;;13.73;8.73;;;10.90;99.90;;;;;;5033185;28;20113;-66
2021/04/29 03:16:32;;;;;;;15.88;9.18;;;10.90;99.90;;;;;;5033311;28;20033;-66
2021/04/29 03:18:58;;;;;;;15.82;9.98;;;10.90;99.90;;;;;;5033236;28;20041;-66
2021/04/29 03:21:24;;;;;;;13.18;9.27;;;10.90;99.90;;;;;;5033126;28;20490;-66
2021/04/29 03:23:49;;;;;;;14.27;9.15;;;10.90;99.90;;;;;;5032873;28;20041;-67
2021/04/29 03:26:17;;;;;;;15.68;9.55;;;10.90;99.90;;;;;;5033368;28;20037;-66
2021/04/29 03:28:42;;;;;;;15.95;8.45;;;11.00;99.90;;;;;;5033075;28;20053;-67
2021/04/29 03:31:08;;;;;;;16.25;8.63;;;11.00;99.90;;;;;;5032998;28;20115;-67
2021/04/29 03:33:34;;;;;;;13.18;8.15;;;10.90;99.90;;;;;;5032705;28;20033;-66
2021/04/29 03:36:00;;;;;;;11.50;6.75;;;10.90;99.90;;;;;;5033197;28;20048;-66
2021/04/29 03:38:26;;;;;;;9.20;6.38;;;11.00;99.90;;;;;;5032537;28;20127;-66
2021/04/29 03:40:51;;;;;;;14.43;7.47;;;11.00;99.90;;;;;;5047985;28;20052;-66
2021/04/29 03:43:17;;;;;;;10.30;7.07;;;11.00;99.90;;;;;;5033115;28;20033;-66
2021/04/29 03:45:43;;;;;;;9.57;6.25;;;11.00;99.90;;;;;;5048127;28;20491;-66
2021/04/29 03:48:09;;;;;;;11.45;7.00;;;11.00;99.90;;;;;;5032756;28;20034;-67
2021/04/29 03:50:35;;;;;;;15.73;7.65;;;11.00;99.90;;;;;;5028700;28;20534;-66
2021/04/29 03:53:10;;;;;;;12.38;7.50;;;11.00;99.90;;;;;;4995408;28;20038;-70
2021/04/29 03:55:35;;;;;;;11.35;7.53;;;10.80;99.90;;;;;;5013211;28;20045;-69
2021/04/29 03:58:01;;;;;;;12.68;7.50;;;10.90;99.90;;;;;;5013246;28;20022;-68
2021/04/29 04:00:27;;;;;;;10.05;6.78;;;10.90;99.90;;;;;;5013182;28;20034;-69
2021/04/29 04:02:56;;;;;;;13.13;7.32;;;10.90;99.90;;;;;;5012849;28;20030;-69
2021/04/29 04:05:22;;;;;;;11.82;7.35;;;10.90;99.90;;;;;;5027580;28;20026;-69
2021/04/29 04:07:47;;;;;;;10.25;6.93;;;10.90;99.90;;;;;;5012783;28;20037;-69
2021/04/29 04:10:13;;;;;;;14.75;7.90;;;10.90;99.90;;;;;;5012877;28;20117;-69
2021/04/29 04:12:39;;;;;;;15.88;8.15;;;10.90;99.90;;;;;;5012701;28;20152;-68
2021/04/29 04:15:06;;;;;;;12.43;7.18;;;10.90;99.90;;;;;;5012703;28;20029;-68
2021/04/29 04:17:32;;;;;;;12.77;7.32;;;10.90;99.90;;;;;;5012867;28;20030;-69
2021/04/29 04:19:58;;;;;;;11.63;7.50;;;10.80;99.90;;;;;;5012624;28;20497;-67
2021/04/29 04:22:24;;;;;;;12.95;7.38;;;10.80;99.90;;;;;;5026443;28;20084;-69
2021/04/29 04:24:50;;;;;;;15.95;7.60;;;10.80;99.90;;;;;;5031949;28;20053;-72
2021/04/29 04:27:15;;;;;;;14.48;8.05;;;10.80;99.90;;;;;;5029165;28;20038;-69
2021/04/29 04:29:41;;;;;;;12.25;8.27;;;10.80;99.90;;;;;;5030821;28;20359;-69
2021/04/29 04:32:09;;;;;;;12.77;7.95;;;10.80;99.90;;;;;;5032483;28;20030;-68
2021/04/29 04:34:35;;;;;;;11.50;7.60;;;10.80;99.90;;;;;;5031919;28;20033;-69
2021/04/29 04:37:01;;;;;;;9.52;6.93;;;10.80;99.90;;;;;;5030755;28;20044;-71
2021/04/29 04:39:26;;;;;;;13.75;7.15;;;10.80;99.90;;;;;;5032363;28;20092;-70
2021/04/29 04:41:52;;;;;;;13.40;6.72;;;10.70;99.90;;;;;;5031952;28;20032;-70
2021/04/29 04:44:18;;;;;;;11.50;6.78;;;10.80;99.90;;;;;;5032171;28;20075;-69
2021/04/29 04:46:47;;;;;;;11.02;6.80;;;10.90;99.90;;;;;;5032076;28;20036;-69
2021/04/29 04:49:12;;;;;;;15.95;6.97;;;10.80;99.90;;;;;;5006263;28;20045;-67
2021/04/29 04:51:42;;;;;;;12.13;6.93;;;10.80;99.90;;;;;;5036089;28;20027;-68
2021/04/29 04:54:07;;;;;;;10.10;6.30;;;10.80;99.90;;;;;;5036227;28;20025;-68
2021/04/29 04:56:36;;;;;;;13.50;6.50;;;10.80;99.90;;;;;;5035978;28;20030;-68
2021/04/29 04:59:02;;;;;;;9.57;6.50;;;10.90;99.90;;;;;;5034841;28;20029;-68
2021/04/29 05:01:28;;;;;;;10.75;6.90;;;10.80;99.90;;;;;;5036035;28;20040;-67
2021/04/29 05:03:55;;;;;;;8.35;5.20;;;11.00;99.90;;;;;;5035876;28;20033;-68
2021/04/29 05:06:21;;;;;;;9.77;5.97;;;11.10;99.90;;;;;;5035463;28;20378;-68
2021/04/29 05:08:47;;;;;;;9.73;5.30;;;11.00;99.90;;;;;;5033869;28;20026;-68
2021/04/29 05:11:13;;;;;;;8.32;4.97;;;11.10;99.90;;;;;;5035456;28;20147;-68
2021/04/29 05:13:39;;;;;;;7.65;5.57;;;11.10;99.90;;;;;;5035518;28;20481;-66
2021/04/29 05:16:05;;;;;;;7.65;5.32;;;11.20;99.90;;;;;;5035515;28;20041;-68
2021/04/29 05:18:30;;;;;;;10.27;5.40;;;11.20;99.90;;;;;;5035601;28;20033;-68
2021/04/29 05:20:56;;;;;;;8.43;4.93;;;11.20;99.90;;;;;;5037279;28;20025;-68
2021/04/29 05:23:22;;;;;;;8.30;5.60;;;11.10;99.90;;;;;;5070978;28;20078;-70
2021/04/29 05:25:48;;;;;;;11.07;5.80;;;11.10;99.90;;;;;;5070445;28;20029;-69
2021/04/29 05:28:15;;;;;;;7.95;5.20;;;11.20;99.90;;;;;;5055317;28;20080;-69
2021/04/29 05:30:41;;;;;;;7.97;5.13;;;11.30;99.90;;;;;;5055165;28;20029;-69
2021/04/29 05:33:06;;;;;;;10.05;6.10;;;11.50;99.90;;;;;;5055194;28;20098;-69
2021/04/29 05:35:33;;;;;;;9.38;5.35;;;11.40;99.90;;;;;;5055077;28;20032;-69
2021/04/29 05:37:59;;;;;;;8.02;5.43;;;11.60;99.90;;;;;;5054942;28;20083;-68
2021/04/29 05:40:25;;;;;;;10.43;6.18;;;11.60;99.90;;;;;;5070162;28;20041;-70
2021/04/29 05:42:51;;;;;;;7.45;5.55;;;11.60;99.90;;;;;;5036913;28;20029;-69
2021/04/29 05:45:16;;;;;;;8.88;5.68;;;11.70;99.90;;;;;;5055094;28;20040;-70
2021/04/29 05:47:42;;;;;;;13.63;6.07;;;11.80;99.90;;;;;;5054774;28;20086;-69
2021/04/29 05:50:10;;;;;;;7.70;5.80;;;11.80;99.90;;;;;;5054987;28;20036;-69
2021/04/29 05:52:37;;;;;;;13.60;5.72;;;11.80;99.90;;;;;;5054824;28;20056;-70
2021/04/29 05:55:03;;;;;;;9.45;5.80;;;11.80;99.90;;;;;;5054188;28;20028;-70
2021/04/29 05:57:29;;;;;;;9.57;5.97;;;11.90;99.90;;;;;;5070233;28;20041;-70
2021/04/29 05:59:54;;;;;;;11.70;6.13;;;12.00;99.90;;;;;;5054477;28;20119;-69
2021/04/29 06:02:20;;;;;;;10.57;5.63;;;12.00;99.90;;;;;;5053940;28;20032;-70
2021/04/29 06:04:46;;;;;;;11.07;6.22;;;12.00;99.90;;;;;;5054215;28;20052;-69
2021/04/29 06:07:15;;;;;;;10.80;6.07;;;12.10;99.90;;;;;;5054617;28;20108;-69
2021/04/29 06:09:41;;;;;;;12.90;5.95;;;12.10;99.90;;;;;;5054249;28;20040;-70
2021/04/29 06:12:08;;;;;;;10.00;6.00;;;12.10;99.90;;;;;;5054044;28;20116;-69
2021/04/29 06:14:34;;;;;;;10.48;6.35;;;12.00;99.90;;;;;;5054415;28;20485;-70
2021/04/29 06:17:00;;;;;;;9.88;6.18;;;12.10;99.90;;;;;;5054310;28;20037;-69
2021/04/29 06:19:26;;;;;;;12.15;6.82;;;12.10;99.90;;;;;;5054192;28;20396;-69
2021/04/29 06:21:52;;;;;;;10.88;6.50;;;12.10;99.90;;;;;;5069316;28;20052;-70
2021/04/29 06:24:18;;;;;;;13.20;6.70;;;12.20;99.90;;;;;;5054469;28;20060;-69
2021/04/29 06:26:44;;;;;;;10.32;6.70;;;12.20;99.90;;;;;;5054142;28;20041;-69
2021/04/29 06:29:09;;;;;;;8.60;5.75;;;12.30;99.90;;;;;;5053698;28;20032;-69
2021/04/29 06:31:39;;;;;;;9.30;6.05;;;12.30;99.90;;;;;;5053403;28;20108;-68
2021/04/29 06:34:06;;;;;;;12.73;5.78;;;12.20;99.90;;;;;;5053834;28;20047;-68
2021/04/29 06:36:32;;;;;;;9.57;5.00;;;12.20;99.90;;;;;;5053830;28;20029;-69
2021/04/29 06:38:58;;;;;;;10.70;5.60;;;12.20;99.90;;;;;;5065437;28;20056;-69
2021/04/29 06:41:25;;;;;;;10.25;5.55;;;12.20;99.90;;;;;;5053800;28;20075;-69
2021/04/29 06:43:51;;;;;;;7.38;5.07;;;12.20;99.90;;;;;;5035725;28;20029;-69
2021/04/29 06:46:17;;;;;;;8.98;6.45;;;12.10;99.90;;;;;;5069081;28;20033;-69
2021/04/29 06:48:43;;;;;;;8.40;4.72;;;12.10;99.90;;;;;;5035627;28;20037;-69
2021/04/29 06:51:08;;;;;;;8.25;4.88;;;12.20;99.90;;;;;;5053649;28;20477;-70
2021/04/29 06:53:34;;;;;;;9.48;5.72;;;12.30;99.90;;;;;;5053697;28;20481;-69
2021/04/29 06:56:00;;;;;;;11.27;5.35;;;12.50;99.90;;;;;;5053395;28;20037;-69
2021/04/29 06:58:28;;;;;;;9.93;4.63;;;12.70;99.90;;;;;;5053224;28;20037;-70
2021/04/29 07:00:54;;;;;;;11.30;5.95;;;12.70;99.90;;;;;;5053632;28;20033;-69
2021/04/29 07:03:23;;;;;;;10.38;5.00;;;12.60;99.90;;;;;;5034901;28;20078;-53
2021/04/29 07:05:49;;;;;;;9.77;5.40;;;12.80;99.90;;;;;;5035261;28;20025;-54
2021/04/29 07:08:15;;;;;;;7.95;4.32;;;12.90;99.90;;;;;;5053385;28;20082;-55
2021/04/29 07:10:41;;;;;;;10.15;5.00;;;12.80;99.90;;;;;;5053411;28;20370;-53
2021/04/29 07:13:10;;;;;;;9.93;5.07;;;12.80;99.90;;;;;;5051667;28;20056;-50
2021/04/29 07:15:36;;;;;;;9.63;5.10;;;13.00;99.90;;;;;;5068518;28;20041;-51
2021/04/29 07:18:04;;;;;;;9.95;5.15;;;12.90;99.90;;;;;;5052746;28;20397;-53
2021/04/29 07:20:34;;;;;;;10.25;5.38;;;13.00;99.90;;;;;;5053244;28;20094;-52
2021/04/29 07:23:00;;;;;;;12.10;5.68;;;13.10;99.90;;;;;;5052398;28;20041;-47
2021/04/29 07:25:26;;;;;;;9.30;4.70;;;13.10;99.90;;;;;;5053125;28;20148;-50
2021/04/29 07:27:52;;;;;;;8.25;4.75;;;13.00;99.90;;;;;;5052808;28;20043;-52
2021/04/29 07:30:18;;;;;;;11.45;5.00;;;13.10;99.90;;;;;;5053045;28;20123;-48
2021/04/29 07:32:44;;;;;;;9.32;5.03;;;13.20;99.90;;;;;;5052963;28;20031;-51
2021/04/29 07:35:10;;;;;;;12.43;4.70;;;13.40;99.90;;;;;;5052484;28;20103;-50
2021/04/29 07:37:36;;;;;;;6.90;4.53;;;13.30;99.90;;;;;;5052431;28;20056;-53
2021/04/29 07:40:04;;;;;;;7.05;4.40;;;13.40;99.90;;;;;;5034648;28;20036;-54
2021/04/29 07:42:30;;;;;;;8.52;5.45;;;13.30;99.90;;;;;;5052686;28;20029;-50
2021/04/29 07:44:56;;;;;;;8.38;5.38;;;13.30;99.90;;;;;;5052649;28;20515;-51
2021/04/29 07:47:21;;;;;;;7.28;4.65;;;13.30;99.90;;;;;;5052781;28;20059;-52
2021/04/29 07:49:48;;;;;;;9.73;4.93;;;13.40;99.90;;;;;;5052578;28;20033;-71
2021/04/29 07:52:13;;;;;;;9.50;4.43;;;13.60;99.90;;;;;;5052296;28;20392;-70
2021/04/29 07:54:39;;;;;;;6.60;3.78;;;13.70;99.90;;;;;;5068100;28;20037;-70
2021/04/29 07:57:06;;;;;;;9.95;4.60;;;13.70;99.90;;;;;;5052710;28;20484;-69
2021/04/29 07:59:31;;;;;;;9.52;4.40;;;13.60;99.90;;;;;;5067961;28;20057;-71
2021/04/29 08:01:57;;;;;;;8.90;4.50;;;13.40;99.90;;;;;;5052273;28;20071;-71
2021/04/29 08:04:23;;;;;;;8.60;5.05;;;13.30;99.90;;;;;;5067667;28;20477;-69
2021/04/29 08:06:49;;;;;;;7.38;4.63;;;13.30;99.90;;;;;;5067958;28;20029;-70
2021/04/29 08:09:15;;;;;;;7.70;4.82;;;13.20;99.90;;;;;;5052408;28;20085;-70
2021/04/29 08:11:41;;;;;;;10.90;4.30;;;13.20;99.90;;;;;;5052504;28;20040;-70
2021/04/29 08:14:07;;;;;;;7.78;4.65;;;13.20;99.90;;;;;;5052085;28;20496;-70
2021/04/29 08:16:33;;;;;;;10.43;5.57;;;13.20;99.90;;;;;;5052458;28;20067;-70
2021/04/29 08:18:59;;;;;;;8.10;5.20;;;13.20;99.90;;;;;;5051904;28;20028;-69
2021/04/29 08:21:25;;;;;;;10.27;5.45;;;13.10;99.90;;;;;;5034139;28;20167;-71
2021/04/29 08:23:51;;;;;;;8.85;5.05;;;13.20;99.90;;;;;;5051907;28;20044;-71
2021/04/29 08:26:19;;;;;;;8.90;4.93;;;13.30;99.90;;;;;;5052098;28;20506;-70
2021/04/29 08:28:45;;;;;;;11.38;4.80;;;13.30;99.90;;;;;;5052200;28;20457;-70
2021/04/29 08:31:10;;;;;;;9.75;4.50;;;13.40;99.90;;;;;;5050420;28;20040;-69
2021/04/29 08:33:36;;;;;;;6.88;4.68;;;13.30;99.90;;;;;;5052080;28;20112;-69
2021/04/29 08:36:02;;;;;;;6.70;4.57;;;13.30;99.90;;;;;;5067330;28;20036;-71
2021/04/29 08:38:28;;;;;;;10.25;5.32;;;13.30;99.90;;;;;;5051947;28;20037;-70
2021/04/29 08:40:54;;;;;;;7.47;4.72;;;13.60;99.90;;;;;;5067466;28;20505;-70
2021/04/29 08:43:19;;;;;;;7.10;4.88;;;13.70;99.90;;;;;;5051810;28;20096;-69
2021/04/29 08:45:48;;;;;;;10.05;5.30;;;13.80;99.90;;;;;;5052033;28;20155;-69
2021/04/29 08:48:22;;;;;;;10.55;5.53;;;13.90;99.90;;;;;;5052109;28;20029;-69
2021/04/29 08:50:48;;;;;;;8.18;5.28;;;14.00;99.90;;;;;;5066989;28;20123;-69
2021/04/29 08:53:14;;;;;;;11.88;5.88;;;14.20;99.90;;;;;;5051546;28;20602;-69
2021/04/29 08:55:41;;;;;;;12.35;5.28;;;14.20;99.90;;;;;;5051905;28;20044;-69
2021/04/29 08:58:08;;;;;;;9.52;5.68;;;14.10;99.90;;;;;;5051806;28;20036;-69
2021/04/29 09:00:33;;;;;;;9.75;6.40;;;14.00;99.90;;;;;;5051951;28;20482;-70
2021/04/29 09:02:59;;;;;;;11.65;6.40;;;14.10;99.90;;;;;;5051353;28;20057;-69
2021/04/29 09:05:34;;;;;;;12.45;6.03;;;14.10;99.90;;;;;;5051789;28;20029;-70
2021/04/29 09:08:06;;;;;;;12.40;6.30;;;14.10;99.90;;;;;;5051524;28;20078;-69
2021/04/29 09:10:35;;;;;;;9.82;5.47;;;14.20;99.90;;;;;;5051806;28;20033;-70
2021/04/29 09:13:14;;;;;;;7.93;5.30;;;14.30;99.90;;;;;;5051699;28;20108;-70
2021/04/29 09:15:40;;;;;;;11.40;4.90;;;14.40;99.90;;;;;;5066968;28;20477;-68
2021/04/29 09:18:08;;;;;;;9.82;4.97;;;14.50;99.90;;;;;;5051466;28;20041;-69
2021/04/29 09:20:37;;;;;;;11.38;6.22;;;14.40;99.90;;;;;;5051725;28;20040;-70
2021/04/29 09:23:07;;;;;;;10.07;6.00;;;14.50;99.90;;;;;;5051276;28;20045;-70
2021/04/29 09:25:35;;;;;;;9.88;5.95;;;14.60;99.90;;;;;;5067232;28;20055;-70
2021/04/29 09:28:01;;;;;;;10.02;5.97;;;14.60;99.90;;;;;;5051352;28;20123;-69
2021/04/29 09:30:31;;;;;;;8.70;5.70;;;14.80;99.90;;;;;;5051104;28;20029;-68
2021/04/29 09:33:01;;;;;;;9.70;6.05;;;14.70;99.90;;;;;;5051492;28;20116;-70
2021/04/29 09:35:28;;;;;;;8.95;5.38;;;14.70;99.90;;;;;;5051040;28;20168;-70
2021/04/29 09:37:59;;;;;;;12.68;6.40;;;14.90;99.90;;;;;;5054162;28;20037;-71
2021/04/29 09:40:29;;;;;;;10.07;6.07;;;15.00;99.90;;;;;;5053112;28;20029;-71
2021/04/29 09:42:59;;;;;;;10.38;6.50;;;14.90;99.90;;;;;;5055271;28;20404;-73
2021/04/29 09:45:31;;;;;;;10.23;6.18;;;14.80;99.90;;;;;;5054863;28;20041;-70
2021/04/29 09:48:08;;;;;;;12.40;6.00;;;14.70;99.90;;;;;;5055104;28;20029;-70
2021/04/29 09:50:46;;;;;;;9.48;5.97;;;14.80;99.90;;;;;;5069921;28;20035;-70
2021/04/29 09:53:16;;;;;;;10.55;5.85;;;14.70;99.90;;;;;;5070140;28;20071;-70
2021/04/29 09:55:47;;;;;;;9.80;5.82;;;14.90;99.90;;;;;;5054762;28;20032;-71
2021/04/29 09:58:16;;;;;;;9.25;5.63;;;15.10;99.90;;;;;;5070046;28;20426;-71
2021/04/29 10:00:48;;;;;;;10.27;5.55;;;15.20;99.90;;;;;;5070094;28;20033;-70
2021/04/29 10:03:15;;;;;;;8.30;5.70;;;15.30;99.90;;;;;;5054654;28;20021;-72
2021/04/29 10:05:42;;;;;;;9.00;5.65;;;15.40;99.90;;;;;;5054714;28;20119;-69
2021/04/29 10:08:14;;;;;;;15.93;6.03;;;15.30;99.90;;;;;;5054531;28;20477;-71
2021/04/29 10:10:47;;;;;;;8.70;5.78;;;15.40;99.90;;;;;;5062391;28;20101;-71
2021/04/29 10:13:17;;;;;;;12.23;6.65;;;15.30;99.90;;;;;;5033417;28;20445;-70
2021/04/29 10:15:45;;;;;;;10.98;5.43;;;15.20;99.90;;;;;;5018278;28;20030;-71
2021/04/29 10:18:13;;;;;;;8.55;5.45;;;15.10;99.90;;;;;;5049866;28;20076;-74
2021/04/29 10:20:49;;;;;;;11.63;5.68;;;15.10;99.90;;;;;;5041397;28;20037;-70
2021/04/29 10:23:18;;;;;;;12.02;5.68;;;15.20;99.90;;;;;;5054070;28;20037;-65
2021/04/29 10:25:59;;;;;;;8.55;5.10;;;15.20;99.90;;;;;;5052617;28;20028;-66
2021/04/29 10:28:44;;;;;;;9.63;6.00;;;15.50;99.90;;;;;;5054316;28;20044;-65
2021/04/29 10:31:23;;;;;;;9.27;5.32;;;15.70;99.90;;;;;;5054077;28;20021;-65
2021/04/29 10:34:12;;;;;;;8.75;5.35;;;15.90;99.90;;;;;;5054247;28;20396;-66
2021/04/29 10:36:44;;;;;;;9.73;5.07;;;15.90;99.90;;;;;;5053847;28;20366;-65
2021/04/29 10:39:24;;;;;;;7.50;4.82;;;16.10;99.90;;;;;;5068993;28;20385;-66
2021/04/29 10:42:07;;;;;;;9.70;5.78;;;15.90;99.90;;;;;;5054203;28;20041;-65
2021/04/29 10:44:52;;;;;;;10.35;5.28;;;15.70;99.90;;;;;;5054103;28;20043;-67
2021/04/29 10:47:31;;;;;;;7.38;4.10;;;15.80;99.90;;;;;;5013943;28;20041;-74
2021/04/29 10:50:19;;;;;;;9.23;4.57;;;16.00;99.90;;;;;;5012609;28;20034;-75
2021/04/29 10:52:57;;;;;;;7.88;4.70;;;16.10;99.90;;;;;;5012707;28;20133;-66
2021/04/29 10:55:32;;;;;;;10.60;6.05;;;16.00;99.30;;;;;;5013816;28;20034;-65
2021/04/29 10:58:00;;;;;;;10.43;4.88;;;16.40;99.50;;;;;;5012583;28;20060;-78
2021/04/29 11:00:30;;;;;;;9.68;4.70;;;16.80;99.90;;;;;;5013670;28;20434;-68
2021/04/29 11:03:04;;;;;;;7.15;4.55;;;17.20;98.00;;;;;;5013996;28;20026;-66
2021/04/29 11:05:33;;;;;;;7.55;5.30;;;17.10;96.50;;;;;;5013463;28;20029;-66
2021/04/29 11:08:09;;;;;;;8.15;4.45;;;17.00;98.70;;;;;;5013768;28;20041;-65
2021/04/29 11:10:37;;;;;;;8.30;4.90;;;16.70;99.90;;;;;;5013835;28;20037;-67
2021/04/29 11:13:05;;;;;;;7.00;4.07;;;16.60;99.50;;;;;;5013254;28;20045;-67
2021/04/29 11:15:40;;;;;;;10.98;3.80;;;16.40;98.00;;;;;;5021281;28;20037;-67
2021/04/29 11:18:16;;;;;;;6.68;3.35;;;16.50;95.70;;;;;;5033343;28;20041;-66
2021/04/29 11:21:00;;;;;;;11.10;4.05;;;16.50;95.60;;;;;;5048567;28;20032;-67
2021/04/29 11:23:42;;;;;;;7.82;3.45;;;16.60;97.40;;;;;;5031762;28;20041;-66
2021/04/29 11:26:12;;;;;;;8.48;3.67;;;16.60;94.10;;;;;;5032625;28;20548;-68
2021/04/29 11:28:38;;;;;;;7.22;2.88;;;16.90;95.30;;;;;;5033019;28;20045;-66
2021/04/29 11:31:05;;;;;;;4.60;2.55;;;17.10;92.00;;;;;;5033040;28;20040;-66
2021/04/29 11:33:41;;;;;;;7.22;2.40;;;17.10;93.40;;;;;;5033011;28;20116;-66
2021/04/29 11:36:26;;;;;;;5.00;2.60;;;17.40;90.80;;;;;;5047550;28;20038;-67
2021/04/29 11:38:56;;;;;;;4.32;2.63;;;17.50;90.30;;;;;;5015298;28;20037;-67
2021/04/29 11:41:23;;;;;;;4.53;2.20;;;17.40;90.80;;;;;;5032884;28;20043;-66
2021/04/29 11:44:16;;;;;;;3.90;2.00;;;17.00;88.80;;;;;;5032986;28;20052;-67
2021/04/29 11:46:42;;;;;;;9.32;2.75;;;16.80;90.20;;;;;;5047679;28;20045;-66
2021/04/29 11:49:09;;;;;;;4.57;1.90;;;16.80;87.00;;;;;;5051136;28;20029;-67
2021/04/29 11:51:47;;;;;;;4.90;2.30;;;16.80;85.60;;;;;;5047446;28;20437;-65
2021/04/29 11:54:17;;;;;;;4.00;1.90;;;16.60;90.10;;;;;;5032526;28;20025;-68
2021/04/29 11:56:49;;;;;;;4.63;2.60;;;16.30;91.10;;;;;;5032611;28;20040;-66
2021/04/29 11:59:17;;;;;;;10.70;2.60;;;16.00;92.30;;;;;;5031929;28;20017;-67
2021/04/29 12:01:55;;;;;;;5.32;1.90;;;15.80;92.70;;;;;;5047969;28;20029;-66
2021/04/29 12:04:23;;;;;;;4.20;2.00;;;15.50;92.90;;;;;;5047768;28;20048;-67
2021/04/29 12:07:02;;;;;;;6.57;2.30;;;15.40;93.00;;;;;;5032547;28;20056;-65
2021/04/29 12:09:29;;;;;;;5.68;1.90;;;15.40;93.40;;;;;;5032181;28;20465;-65
2021/04/29 12:12:08;;;;;;;4.68;2.00;;;15.60;91.80;;;;;;5030367;28;20037;-66
2021/04/29 12:14:34;;;;;;;5.15;1.85;;;15.70;90.30;;;;;;5012358;28;20685;-67
2021/04/29 12:17:03;;;;;;;4.80;2.00;;;16.00;89.60;;;;;;5052121;28;20120;-67
2021/04/29 12:19:32;;;;;;;6.05;2.30;;;16.40;88.60;;;;;;5050652;28;20025;-66
2021/04/29 12:21:59;;;;;;;6.57;2.20;;;16.90;89.10;;;;;;5051826;28;20044;-67
2021/04/29 12:24:28;;;;;;;3.72;2.00;;;17.10;85.20;;;;;;5052047;28;20029;-67
2021/04/29 12:26:54;;;;;;;4.75;2.50;;;16.90;87.10;;;;;;5051739;28;20040;-67
2021/04/29 12:29:22;;;;;;;6.78;1.90;;;16.90;87.10;;;;;;5051804;28;20033;-67
2021/04/29 12:31:57;;;;;;;5.28;2.42;;;16.60;86.90;;;;;;5051503;28;20123;-67
2021/04/29 12:34:24;;;;;;;9.10;2.45;;;16.50;85.70;;;;;;5051838;28;20036;-67
2021/04/29 12:37:05;;;;;;;2.35;1.42;;;16.60;90.30;;;;;;5051793;28;20162;-66
2021/04/29 12:39:34;;;;;;;4.03;1.77;;;16.50;83.40;;;;;;5051921;28;20076;-67
2021/04/29 12:42:09;;;;;;;2.97;1.70;;;16.30;83.20;;;;;;5051927;28;20025;-66
2021/04/29 12:44:45;;;;;;;5.20;1.60;;;16.30;81.40;;;;;;5051715;28;20032;-66